createdAt,value
2018-07-15T00:01:25.136Z,16.14
2018-07-15T00:03:53.996Z,16.10
2018-07-15T00:06:22.858Z,16.08
2018-07-15T00:08:52.136Z,16.02
2018-07-15T00:11:21.389Z,16.02
2018-07-15T00:13:50.827Z,15.96
2018-07-15T00:16:21.083Z,15.93
2018-07-15T00:18:50.033Z,15.89
2018-07-15T00:21:19.460Z,15.87
2018-07-15T00:23:48.367Z,15.86
2018-07-15T00:26:17.997Z,15.83
2018-07-15T00:28:47.159Z,15.78
2018-07-15T00:31:15.974Z,15.74
2018-07-15T00:33:45.129Z,15.70
2018-07-15T00:36:14.275Z,15.67
2018-07-15T00:38:43.265Z,15.64
2018-07-15T00:41:12.749Z,15.63
2018-07-15T00:43:41.536Z,15.60
2018-07-15T00:46:10.492Z,15.60
2018-07-15T00:48:39.593Z,15.56
2018-07-15T00:51:08.890Z,15.53
2018-07-15T00:53:38.126Z,15.52
2018-07-15T00:56:07.213Z,15.50
2018-07-15T00:58:36.147Z,15.51
2018-07-15T01:01:06.355Z,15.48
2018-07-15T01:03:35.882Z,15.47
2018-07-15T01:06:05.130Z,15.44
2018-07-15T01:08:34.166Z,15.42
2018-07-15T01:11:03.371Z,15.37
2018-07-15T01:13:32.238Z,15.34
2018-07-15T01:16:01.955Z,15.34
2018-07-15T01:18:31.148Z,15.31
2018-07-15T01:20:59.894Z,15.30
2018-07-15T01:23:28.851Z,15.26
2018-07-15T01:25:58.281Z,15.24
2018-07-15T01:28:27.666Z,15.21
2018-07-15T01:30:56.610Z,15.19
2018-07-15T01:33:25.441Z,15.12
2018-07-15T01:35:54.786Z,15.04
2018-07-15T01:38:23.757Z,14.97
2018-07-15T01:40:52.944Z,14.92
2018-07-15T01:43:21.816Z,14.87
2018-07-15T01:45:51.344Z,14.83
2018-07-15T01:48:20.669Z,14.81
2018-07-15T01:50:50.233Z,14.79
2018-07-15T01:53:19.136Z,14.75
2018-07-15T01:55:48.911Z,14.74
2018-07-15T01:58:18.128Z,14.72
2018-07-15T02:00:46.938Z,14.69
2018-07-15T02:03:16.157Z,14.68
2018-07-15T02:05:45.346Z,14.67
2018-07-15T02:08:14.357Z,14.63
2018-07-15T02:10:43.148Z,14.60
2018-07-15T02:13:12.016Z,14.56
2018-07-15T02:15:41.189Z,14.56
2018-07-15T02:18:10.752Z,14.54
2018-07-15T02:20:39.758Z,14.50
2018-07-15T02:23:09.145Z,14.42
2018-07-15T02:25:38.004Z,14.39
2018-07-15T02:28:06.862Z,14.36
2018-07-15T02:30:35.950Z,14.34
2018-07-15T02:33:04.768Z,14.33
2018-07-15T02:35:33.644Z,14.31
2018-07-15T02:38:02.783Z,14.30
2018-07-15T02:40:31.538Z,14.26
2018-07-15T02:43:04.500Z,14.22
2018-07-15T02:45:34.044Z,14.21
2018-07-15T02:48:04.097Z,14.22
2018-07-15T02:50:33.201Z,14.23
2018-07-15T02:53:01.954Z,14.24
2018-07-15T02:55:31.029Z,14.25
2018-07-15T02:58:00.111Z,14.22
2018-07-15T03:00:30.006Z,14.19
2018-07-15T03:02:59.894Z,14.16
2018-07-15T03:05:28.936Z,14.13
2018-07-15T03:07:59.101Z,14.09
2018-07-15T03:10:28.116Z,14.05
2018-07-15T03:12:57.211Z,14.03
2018-07-15T03:15:26.272Z,14.00
2018-07-15T03:17:55.402Z,13.97
2018-07-15T03:20:24.452Z,13.95
2018-07-15T03:22:53.488Z,13.93
2018-07-15T03:25:22.306Z,13.91
2018-07-15T03:27:51.886Z,13.88
2018-07-15T03:30:21.328Z,13.85
2018-07-15T03:32:50.452Z,13.83
2018-07-15T03:35:19.579Z,13.85
2018-07-15T03:37:48.404Z,13.83
2018-07-15T03:40:17.765Z,13.82
2018-07-15T03:42:46.690Z,13.81
2018-07-15T03:45:15.796Z,13.80
2018-07-15T03:47:44.810Z,13.81
2018-07-15T03:50:15.209Z,13.81
2018-07-15T03:52:45.012Z,13.80
2018-07-15T03:55:13.860Z,13.81
2018-07-15T03:57:43.083Z,13.81
2018-07-15T04:00:11.842Z,13.82
2018-07-15T04:02:41.713Z,13.83
2018-07-15T04:05:11.897Z,13.86
2018-07-15T04:07:40.688Z,13.85
2018-07-15T04:10:09.751Z,13.81
2018-07-15T04:12:39.230Z,13.80
2018-07-15T04:15:08.049Z,13.79
2018-07-15T04:17:36.802Z,13.76
2018-07-15T04:20:06.065Z,13.77
2018-07-15T04:22:35.645Z,13.78
2018-07-15T04:25:05.672Z,13.79
2018-07-15T04:27:34.713Z,13.81
2018-07-15T04:30:04.041Z,13.78
2018-07-15T04:32:33.321Z,13.74
2018-07-15T04:35:02.352Z,13.75
2018-07-15T04:37:31.545Z,13.75
2018-07-15T04:40:00.666Z,13.79
2018-07-15T04:42:29.734Z,13.84
2018-07-15T04:44:58.841Z,13.88
2018-07-15T04:47:27.601Z,13.90
2018-07-15T04:49:57.216Z,13.94
2018-07-15T04:52:25.968Z,13.98
2018-07-15T04:54:55.013Z,14.01
2018-07-15T04:57:23.770Z,14.02
2018-07-15T04:59:52.913Z,14.06
2018-07-15T05:02:22.116Z,14.11
2018-07-15T05:04:50.971Z,14.13
2018-07-15T05:07:19.818Z,14.18
2018-07-15T05:09:48.666Z,14.26
2018-07-15T05:12:17.720Z,14.34
2018-07-15T05:14:46.983Z,14.42
2018-07-15T05:17:15.804Z,14.48
2018-07-15T05:19:44.616Z,14.58
2018-07-15T05:22:13.498Z,14.65
2018-07-15T05:24:42.559Z,14.76
2018-07-15T05:27:11.780Z,14.87
2018-07-15T05:29:40.883Z,14.97
2018-07-15T05:32:10.432Z,15.04
2018-07-15T05:34:40.506Z,15.14
2018-07-15T05:37:09.358Z,15.26
2018-07-15T05:39:38.246Z,15.36
2018-07-15T05:42:08.054Z,15.42
2018-07-15T05:44:37.154Z,15.53
2018-07-15T05:47:05.932Z,15.66
2018-07-15T05:49:35.119Z,15.75
2018-07-15T05:52:04.002Z,15.86
2018-07-15T05:54:33.633Z,15.95
2018-07-15T05:57:02.910Z,16.08
2018-07-15T05:59:31.888Z,16.20
2018-07-15T06:02:01.093Z,16.29
2018-07-15T06:04:30.836Z,16.33
2018-07-15T06:06:59.818Z,16.40
2018-07-15T06:09:29.251Z,16.50
2018-07-15T06:11:58.615Z,16.65
2018-07-15T06:14:28.502Z,16.77
2018-07-15T06:16:59.021Z,16.93
2018-07-15T06:19:28.146Z,17.08
2018-07-15T06:21:57.330Z,17.20
2018-07-15T06:24:26.534Z,17.27
2018-07-15T06:26:55.598Z,17.35
2018-07-15T06:29:24.533Z,17.46
2018-07-15T06:31:53.647Z,17.56
2018-07-15T06:34:23.364Z,17.63
2018-07-15T06:36:52.723Z,17.75
2018-07-15T06:39:21.789Z,17.89
2018-07-15T06:41:50.901Z,18.00
2018-07-15T06:44:20.113Z,18.10
2018-07-15T06:46:49.153Z,18.23
2018-07-15T06:49:18.312Z,18.34
2018-07-15T06:51:47.453Z,18.56
2018-07-15T06:54:16.328Z,18.73
2018-07-15T06:56:45.303Z,18.88
2018-07-15T06:59:15.001Z,19.07
2018-07-15T07:01:44.265Z,19.28
2018-07-15T07:04:13.440Z,19.30
2018-07-15T07:06:42.548Z,19.47
2018-07-15T07:09:11.672Z,19.68
2018-07-15T07:11:40.569Z,19.87
2018-07-15T07:14:09.437Z,20.04
2018-07-15T07:16:39.058Z,20.24
2018-07-15T07:19:09.165Z,20.39
2018-07-15T07:21:37.937Z,20.51
2018-07-15T07:24:07.032Z,20.66
2018-07-15T07:26:35.917Z,20.80
2018-07-15T07:29:05.093Z,20.98
2018-07-15T07:31:34.648Z,21.03
2018-07-15T07:34:03.947Z,21.13
2018-07-15T07:36:33.151Z,21.15
2018-07-15T07:39:02.253Z,21.27
2018-07-15T07:41:31.379Z,21.46
2018-07-15T07:44:00.252Z,21.52
2018-07-15T07:46:29.798Z,21.69
2018-07-15T07:49:10.805Z,21.78
2018-07-15T07:51:41.870Z,21.92
2018-07-15T07:54:10.658Z,22.04
2018-07-15T07:56:40.029Z,22.11
2018-07-15T07:59:09.120Z,22.21
2018-07-15T08:01:38.195Z,22.31
2018-07-15T08:04:07.410Z,22.43
2018-07-15T08:06:36.461Z,22.56
2018-07-15T08:09:06.836Z,22.67
2018-07-15T08:11:35.907Z,22.57
2018-07-15T08:14:04.639Z,22.64
2018-07-15T08:16:33.741Z,22.72
2018-07-15T08:19:02.585Z,22.92
2018-07-15T08:21:31.736Z,23.09
2018-07-15T08:24:00.515Z,23.28
2018-07-15T08:26:29.625Z,23.48
2018-07-15T08:28:58.457Z,23.49
2018-07-15T08:31:27.588Z,23.56
2018-07-15T08:33:57.403Z,23.67
2018-07-15T08:36:26.365Z,23.58
2018-07-15T08:38:55.585Z,23.73
2018-07-15T08:41:24.705Z,23.92
2018-07-15T08:43:54.089Z,24.14
2018-07-15T08:46:24.982Z,24.30
2018-07-15T08:48:53.999Z,24.37
2018-07-15T08:51:24.050Z,24.59
2018-07-15T08:53:53.559Z,24.52
2018-07-15T08:56:23.670Z,24.62
2018-07-15T08:58:53.340Z,24.72
2018-07-15T09:01:23.256Z,24.84
2018-07-15T09:03:52.311Z,24.92
2018-07-15T09:06:21.754Z,24.95
2018-07-15T09:08:51.543Z,24.91
2018-07-15T09:11:22.137Z,24.92
2018-07-15T09:13:51.538Z,24.95
2018-07-15T09:16:21.587Z,25.13
2018-07-15T09:18:52.792Z,25.31
2018-07-15T09:21:23.944Z,25.55
2018-07-15T09:23:54.575Z,25.69
2018-07-15T09:26:23.587Z,25.82
2018-07-15T09:28:54.349Z,25.93
2018-07-15T09:31:24.251Z,25.91
2018-07-15T09:33:53.893Z,26.05
2018-07-15T09:36:23.508Z,26.19
2018-07-15T09:38:53.305Z,26.36
2018-07-15T09:41:23.189Z,26.48
2018-07-15T09:43:53.364Z,26.57
2018-07-15T09:46:24.033Z,26.69
2018-07-15T09:48:55.719Z,26.92
2018-07-15T09:51:25.680Z,26.96
2018-07-15T09:53:55.547Z,26.96
2018-07-15T09:56:25.368Z,27.08
2018-07-15T09:58:54.894Z,27.13
2018-07-15T10:01:24.439Z,27.05
2018-07-15T10:03:54.452Z,27.22
2018-07-15T10:06:23.507Z,27.40
2018-07-15T10:08:54.914Z,27.62
2018-07-15T10:11:24.363Z,27.83
2018-07-15T10:13:54.333Z,28.12
2018-07-15T10:16:23.885Z,28.08
2018-07-15T10:18:52.983Z,27.74
2018-07-15T10:21:23.128Z,27.82
2018-07-15T10:23:52.894Z,27.98
2018-07-15T10:26:21.981Z,28.20
2018-07-15T10:28:51.318Z,27.96
2018-07-15T10:31:21.123Z,28.23
2018-07-15T10:33:50.930Z,28.53
2018-07-15T10:36:20.094Z,28.84
2018-07-15T10:38:49.292Z,28.98
2018-07-15T10:41:19.380Z,28.90
2018-07-15T10:43:50.570Z,28.98
2018-07-15T10:46:19.928Z,28.99
2018-07-15T10:48:50.730Z,29.10
2018-07-15T10:51:20.737Z,29.15
2018-07-15T10:53:51.747Z,29.26
2018-07-15T10:56:21.442Z,29.48
2018-07-15T10:58:51.494Z,29.58
2018-07-15T11:01:22.244Z,29.66
2018-07-15T11:03:52.940Z,29.82
2018-07-15T11:06:22.988Z,29.81
2018-07-15T11:08:53.137Z,29.92
2018-07-15T11:11:23.122Z,30.05
2018-07-15T11:16:56.737Z,29.99
2018-07-15T11:19:28.400Z,30.35
2018-07-15T11:22:03.448Z,30.74
2018-07-15T11:24:39.337Z,31.04
2018-07-15T11:27:10.411Z,31.23
2018-07-15T11:29:40.604Z,31.39
2018-07-15T11:32:09.546Z,31.39
2018-07-15T11:34:41.437Z,31.41
2018-07-15T11:37:11.215Z,31.46
2018-07-15T11:39:47.807Z,31.42
2018-07-15T11:42:18.867Z,31.48
2018-07-15T11:44:50.563Z,31.68
2018-07-15T11:47:22.481Z,31.80
2018-07-15T11:49:54.278Z,31.99
2018-07-15T11:52:24.543Z,31.75
2018-07-15T11:54:54.403Z,31.64
2018-07-15T11:57:23.592Z,31.64
2018-07-15T11:59:53.621Z,31.71
2018-07-15T12:02:23.404Z,31.59
2018-07-15T12:04:53.290Z,31.60
2018-07-15T12:07:22.242Z,31.84
2018-07-15T12:09:51.436Z,31.91
2018-07-15T12:12:20.421Z,32.10
2018-07-15T12:14:49.287Z,32.27
2018-07-15T12:17:19.224Z,32.37
2018-07-15T12:19:49.207Z,32.06
2018-07-15T12:22:18.089Z,32.09
2018-07-15T12:24:47.581Z,32.22
2018-07-15T12:27:17.729Z,32.28
2018-07-15T12:29:46.983Z,32.24
2018-07-15T12:32:17.352Z,32.33
2018-07-15T12:34:47.542Z,32.05
2018-07-15T12:37:18.251Z,31.98
2018-07-15T12:39:47.571Z,31.79
2018-07-15T12:42:16.764Z,32.13
2018-07-15T12:44:45.628Z,32.19
2018-07-15T12:47:16.268Z,32.29
2018-07-15T12:49:45.467Z,32.61
2018-07-15T12:52:15.056Z,33.02
2018-07-15T12:54:52.467Z,32.89
2018-07-15T12:57:21.360Z,32.61
2018-07-15T12:59:51.480Z,32.69
2018-07-15T13:02:20.939Z,32.67
2018-07-15T13:04:49.760Z,32.78
2018-07-15T13:07:19.123Z,32.89
2018-07-15T13:09:48.155Z,32.94
2018-07-15T13:12:17.331Z,33.12
2018-07-15T13:14:46.131Z,33.07
2018-07-15T13:17:15.578Z,33.14
2018-07-15T13:19:46.376Z,33.11
2018-07-15T13:22:16.489Z,33.11
2018-07-15T13:24:46.002Z,33.45
2018-07-15T13:27:15.180Z,33.69
2018-07-15T13:29:44.232Z,33.78
2018-07-15T13:32:13.384Z,33.03
2018-07-15T13:34:42.813Z,33.24
2018-07-15T13:37:12.549Z,33.42
2018-07-15T13:39:42.176Z,33.34
2018-07-15T13:42:11.547Z,33.29
2018-07-15T13:44:40.365Z,33.45
2018-07-15T13:47:09.275Z,33.36
2018-07-15T13:49:38.627Z,33.63
2018-07-15T13:52:07.826Z,33.89
2018-07-15T13:54:36.946Z,34.14
2018-07-15T13:57:05.773Z,33.87
2018-07-15T13:59:34.845Z,33.66
2018-07-15T14:02:03.744Z,33.86
2018-07-15T14:04:32.901Z,34.04
2018-07-15T14:07:02.133Z,33.89
2018-07-15T14:09:31.027Z,34.00
2018-07-15T14:12:00.392Z,34.00
2018-07-15T14:14:29.688Z,34.12
2018-07-15T14:16:58.555Z,34.09
2018-07-15T14:19:27.728Z,34.39
2018-07-15T14:21:56.748Z,34.42
2018-07-15T14:24:25.937Z,34.09
2018-07-15T14:26:55.170Z,34.27
2018-07-15T14:29:24.467Z,34.18
2018-07-15T14:31:54.363Z,34.08
2018-07-15T14:34:23.214Z,33.95
2018-07-15T14:36:53.256Z,33.62
2018-07-15T14:39:23.043Z,33.59
2018-07-15T14:41:53.180Z,32.96
2018-07-15T14:44:22.144Z,33.11
2018-07-15T14:46:55.385Z,33.06
2018-07-15T14:49:24.286Z,33.28
2018-07-15T14:51:53.423Z,33.36
2018-07-15T14:54:23.488Z,33.49
2018-07-15T14:56:52.361Z,33.69
2018-07-15T14:59:21.823Z,33.55
2018-07-15T15:01:51.223Z,33.25
2018-07-15T15:04:20.511Z,32.82
2018-07-15T15:06:50.859Z,32.92
2018-07-15T15:09:19.974Z,33.11
2018-07-15T15:11:50.357Z,33.22
2018-07-15T15:14:20.359Z,33.38
2018-07-15T15:16:49.241Z,33.33
2018-07-15T15:19:18.464Z,33.13
2018-07-15T15:21:48.440Z,33.24
2018-07-15T15:24:17.411Z,33.56
2018-07-15T15:26:46.613Z,33.83
2018-07-15T15:29:15.628Z,33.25
2018-07-15T15:31:45.230Z,33.42
2018-07-15T15:34:14.163Z,32.97
2018-07-15T15:36:43.196Z,33.06
2018-07-15T15:39:12.293Z,33.22
2018-07-15T15:41:41.426Z,32.82
2018-07-15T15:44:10.718Z,32.70
2018-07-15T15:46:40.174Z,32.54
2018-07-15T15:49:10.703Z,32.56
2018-07-15T15:51:39.869Z,32.67
2018-07-15T15:54:09.642Z,32.71
2018-07-15T15:56:38.777Z,32.38
2018-07-15T15:59:07.922Z,31.92
2018-07-15T16:01:37.067Z,31.95
2018-07-15T16:04:06.169Z,32.21
2018-07-15T16:06:35.405Z,32.19
2018-07-15T16:09:04.908Z,32.11
2018-07-15T16:11:34.158Z,32.14
2018-07-15T16:14:04.188Z,31.78
2018-07-15T16:16:33.760Z,31.65
2018-07-15T16:19:02.910Z,31.84
2018-07-15T16:21:32.554Z,32.11
2018-07-15T16:24:02.151Z,31.94
2018-07-15T16:26:31.594Z,31.82
2018-07-15T16:29:00.891Z,31.80
2018-07-15T16:31:30.558Z,31.83
2018-07-15T16:34:00.597Z,31.92
2018-07-15T16:36:29.588Z,31.60
2018-07-15T16:38:58.630Z,31.73
2018-07-15T16:41:28.981Z,31.51
2018-07-15T16:43:58.275Z,31.39
2018-07-15T16:46:27.444Z,31.50
2018-07-15T16:48:56.252Z,31.22
2018-07-15T16:51:25.452Z,31.04
2018-07-15T16:53:54.712Z,31.05
2018-07-15T16:56:23.574Z,31.05
2018-07-15T16:58:52.486Z,31.01
2018-07-15T17:01:21.513Z,30.95
2018-07-15T17:03:50.552Z,30.84
2018-07-15T17:06:20.145Z,30.87
2018-07-15T17:08:49.731Z,31.00
2018-07-15T17:11:18.663Z,30.96
2018-07-15T17:13:47.815Z,30.71
2018-07-15T17:16:17.235Z,30.68
2018-07-15T17:18:46.267Z,30.66
2018-07-15T17:21:15.309Z,30.66
2018-07-15T17:23:44.211Z,30.51
2018-07-15T17:26:13.721Z,30.42
2018-07-15T17:28:43.203Z,30.22
2018-07-15T17:31:13.150Z,30.26
2018-07-15T17:33:42.269Z,30.37
2018-07-15T17:36:11.502Z,30.25
2018-07-15T17:38:40.349Z,29.99
2018-07-15T17:41:09.721Z,29.94
2018-07-15T17:43:38.552Z,29.92
2018-07-15T17:46:08.249Z,29.80
2018-07-15T17:48:37.790Z,29.70
2018-07-15T17:51:07.176Z,29.61
2018-07-15T17:53:36.767Z,29.37
2018-07-15T17:56:06.405Z,29.16
2018-07-15T17:58:35.470Z,29.00
2018-07-15T18:01:04.289Z,29.03
2018-07-15T18:03:33.115Z,29.06
2018-07-15T18:06:02.367Z,28.71
2018-07-15T18:08:31.513Z,28.85
2018-07-15T18:11:00.722Z,28.84
2018-07-15T18:13:29.604Z,28.80
2018-07-15T18:15:59.990Z,28.74
2018-07-15T18:18:28.885Z,28.53
2018-07-15T18:20:57.665Z,28.50
2018-07-15T18:23:27.027Z,28.45
2018-07-15T18:25:56.017Z,28.45
2018-07-15T18:28:24.755Z,28.38
2018-07-15T18:30:54.118Z,28.29
2018-07-15T18:33:22.992Z,28.23
2018-07-15T18:35:51.795Z,28.06
2018-07-15T18:38:20.838Z,28.00
2018-07-15T18:40:49.588Z,27.89
2018-07-15T18:43:19.537Z,27.73
2018-07-15T18:45:48.561Z,27.75
2018-07-15T18:48:17.358Z,27.70
2018-07-15T18:50:47.409Z,27.69
2018-07-15T18:53:16.689Z,27.57
2018-07-15T18:55:45.506Z,27.57
2018-07-15T18:58:15.929Z,27.57
2018-07-15T19:00:44.966Z,27.51
2018-07-15T19:03:13.741Z,27.44
2018-07-15T19:05:42.735Z,27.33
2018-07-15T19:08:11.916Z,27.19
2018-07-15T19:10:41.139Z,27.16
2018-07-15T19:13:10.065Z,27.10
2018-07-15T19:15:39.762Z,27.14
2018-07-15T19:18:08.593Z,27.08
2018-07-15T19:20:37.413Z,27.02
2018-07-15T19:23:06.229Z,26.96
2018-07-15T19:25:35.651Z,26.88
2018-07-15T19:28:04.822Z,26.86
2018-07-15T19:30:33.821Z,26.82
2018-07-15T19:33:02.712Z,26.75
2018-07-15T19:35:31.550Z,26.63
2018-07-15T19:38:00.819Z,26.52
2018-07-15T19:40:29.882Z,26.45
2018-07-15T19:42:59.018Z,26.36
2018-07-15T19:45:28.153Z,26.28
2018-07-15T19:47:58.455Z,26.19
2018-07-15T19:50:28.525Z,26.13
2018-07-15T19:52:57.943Z,26.09
2018-07-15T19:55:27.137Z,26.03
2018-07-15T19:57:55.982Z,25.93
2018-07-15T20:00:25.090Z,25.75
2018-07-15T20:02:54.167Z,25.55
2018-07-15T20:05:23.020Z,25.45
2018-07-15T20:07:52.086Z,25.34
2018-07-15T20:10:20.937Z,25.20
2018-07-15T20:12:50.135Z,25.07
2018-07-15T20:15:19.153Z,25.00
2018-07-15T20:17:49.052Z,24.94
2018-07-15T20:20:17.863Z,24.86
2018-07-15T20:22:46.625Z,24.75
2018-07-15T20:25:15.431Z,24.63
2018-07-15T20:27:44.484Z,24.46
2018-07-15T20:30:13.735Z,24.41
2018-07-15T20:32:42.768Z,24.35
2018-07-15T20:35:12.086Z,24.29
2018-07-15T20:37:43.057Z,24.23
2018-07-15T20:40:12.556Z,24.15
2018-07-15T20:42:41.913Z,24.06
2018-07-15T20:45:11.015Z,24.03
2018-07-15T20:47:39.835Z,23.91
2018-07-15T20:50:08.825Z,23.75
2018-07-15T20:52:38.623Z,23.56
2018-07-15T20:55:07.790Z,23.44
2018-07-15T20:57:36.898Z,23.40
2018-07-15T21:00:06.023Z,23.36
2018-07-15T21:02:35.320Z,23.33
2018-07-15T21:05:04.349Z,23.24
2018-07-15T21:07:33.304Z,23.14
2018-07-15T21:10:02.323Z,23.09
2018-07-15T21:12:31.382Z,23.01
2018-07-15T21:15:00.534Z,22.88
2018-07-15T21:17:29.706Z,22.78
2018-07-15T21:19:58.528Z,22.70
2018-07-15T21:22:27.392Z,22.58
2018-07-15T21:24:56.817Z,22.48
2018-07-15T21:27:25.579Z,22.37
2018-07-15T21:29:54.311Z,22.33
2018-07-15T21:32:23.407Z,22.31
2018-07-15T21:34:52.298Z,22.21
2018-07-15T21:37:21.204Z,22.05
2018-07-15T21:39:50.517Z,21.92
2018-07-15T21:42:19.497Z,21.82
2018-07-15T21:44:48.759Z,21.72
2018-07-15T21:47:17.986Z,21.69
2018-07-15T21:49:46.966Z,21.70
2018-07-15T21:52:16.265Z,21.70
2018-07-15T21:54:45.908Z,21.67
2018-07-15T21:57:16.021Z,21.63
2018-07-15T21:59:45.469Z,21.59
2018-07-15T22:02:15.133Z,21.50
2018-07-15T22:04:44.210Z,21.44
2018-07-15T22:07:24.202Z,21.42
2018-07-15T22:10:08.787Z,21.35
2018-07-15T22:12:38.953Z,21.29
2018-07-15T22:15:07.835Z,21.24
2018-07-15T22:17:36.700Z,21.21
2018-07-15T22:20:05.724Z,21.16
2018-07-15T22:22:34.572Z,21.09
2018-07-15T22:25:03.611Z,21.04
2018-07-15T22:27:33.071Z,21.01
2018-07-15T22:30:01.816Z,21.01
2018-07-15T22:32:30.594Z,20.97
2018-07-15T22:34:59.946Z,20.93
2018-07-15T22:37:28.734Z,20.88
2018-07-15T22:39:57.792Z,20.82
2018-07-15T22:42:26.847Z,20.76
2018-07-15T22:44:55.764Z,20.71
2018-07-15T22:47:25.467Z,20.69
2018-07-15T22:49:54.857Z,20.65
2018-07-15T22:52:24.840Z,20.52
2018-07-15T22:54:54.342Z,20.48
2018-07-15T22:57:23.119Z,20.40
2018-07-15T22:59:52.001Z,20.35
2018-07-15T23:02:21.820Z,20.29
2018-07-15T23:06:01.608Z,20.27
2018-07-15T23:08:31.561Z,20.23
2018-07-15T23:11:00.762Z,20.21
2018-07-15T23:13:29.930Z,20.18
2018-07-15T23:15:58.873Z,20.09
2018-07-15T23:18:27.967Z,20.01
2018-07-15T23:20:56.835Z,19.95
2018-07-15T23:23:25.665Z,19.92
2018-07-15T23:25:55.627Z,19.85
2018-07-15T23:28:25.018Z,19.75
2018-07-15T23:30:54.055Z,19.67
2018-07-15T23:33:23.522Z,19.58
2018-07-15T23:35:52.943Z,19.55
2018-07-15T23:38:22.144Z,19.42
2018-07-15T23:40:51.348Z,19.40
2018-07-15T23:43:20.547Z,19.36
2018-07-15T23:45:49.851Z,19.32
2018-07-15T23:48:18.737Z,19.29
2018-07-15T23:50:47.969Z,19.26
2018-07-15T23:53:16.711Z,19.24
2018-07-15T23:55:45.510Z,19.23
2018-07-15T23:58:15.408Z,19.17
